createdAt,value
2022-08-26T00:00:51.263Z,98.00
2022-08-26T00:03:18.459Z,97.08
2022-08-26T00:05:46.407Z,98.77
2022-08-26T00:08:14.244Z,100.00
2022-08-26T00:10:41.169Z,100.00
2022-08-26T00:13:07.994Z,100.00
2022-08-26T00:15:35.330Z,100.00
2022-08-26T00:18:01.790Z,99.59
2022-08-26T00:20:29.515Z,99.03
2022-08-26T00:22:57.418Z,100.00
2022-08-26T00:25:25.571Z,100.00
2022-08-26T00:27:52.716Z,99.35
2022-08-26T00:30:22.784Z,99.53
2022-08-26T00:32:50.812Z,98.49
2022-08-26T00:35:19.061Z,100.00
2022-08-26T00:37:45.658Z,100.00
2022-08-26T00:40:15.618Z,100.00
2022-08-26T00:42:45.826Z,100.00
2022-08-26T00:45:13.826Z,100.00
2022-08-26T00:47:44.114Z,99.43
2022-08-26T00:50:13.602Z,98.70
2022-08-26T00:52:42.830Z,98.36
2022-08-26T00:55:20.382Z,99.85
2022-08-26T00:57:48.379Z,100.00
2022-08-26T01:00:17.555Z,99.79
2022-08-26T01:02:46.920Z,100.00
2022-08-26T01:05:14.284Z,100.00
2022-08-26T01:07:40.867Z,100.00
2022-08-26T01:10:08.973Z,100.00
2022-08-26T01:12:38.898Z,100.00
2022-08-26T01:15:07.646Z,100.00
2022-08-26T01:17:38.469Z,100.00
2022-08-26T01:20:25.850Z,100.00
2022-08-26T01:23:01.548Z,100.00
2022-08-26T01:25:32.727Z,100.00
2022-08-26T01:28:01.761Z,100.00
2022-08-26T01:30:29.853Z,100.00
2022-08-26T01:32:58.309Z,100.00
2022-08-26T01:35:24.888Z,100.00
2022-08-26T01:37:53.715Z,100.00
2022-08-26T01:40:32.602Z,100.00
2022-08-26T01:43:01.205Z,100.00
2022-08-26T01:45:30.420Z,100.00
2022-08-26T01:47:58.445Z,100.00
2022-08-26T01:50:31.760Z,100.00
2022-08-26T01:53:01.089Z,98.74
2022-08-26T01:55:33.149Z,95.33
2022-08-26T01:58:01.238Z,93.90
2022-08-26T02:00:28.075Z,96.54
2022-08-26T02:03:15.903Z,98.81
2022-08-26T02:05:51.326Z,100.00
2022-08-26T02:08:20.602Z,100.00
2022-08-26T02:10:51.535Z,100.00
2022-08-26T02:13:21.921Z,100.00
2022-08-26T02:15:49.286Z,100.00
2022-08-26T02:18:16.542Z,100.00
2022-08-26T02:20:43.094Z,100.00
2022-08-26T02:23:10.046Z,94.45
2022-08-26T02:25:44.720Z,99.71
2022-08-26T02:28:12.592Z,100.00
2022-08-26T02:30:40.408Z,100.00
2022-08-26T02:33:07.041Z,100.00
2022-08-26T02:35:35.565Z,100.00
2022-08-26T02:38:02.615Z,100.00
2022-08-26T02:40:40.530Z,100.00
2022-08-26T02:43:08.773Z,100.00
2022-08-26T02:45:35.717Z,100.00
2022-08-26T02:48:09.218Z,100.00
2022-08-26T02:50:37.978Z,100.00
2022-08-26T02:53:06.376Z,100.00
2022-08-26T02:55:33.030Z,100.00
2022-08-26T02:57:59.932Z,100.00
2022-08-26T03:00:27.426Z,100.00
2022-08-26T03:02:54.408Z,100.00
2022-08-26T03:05:22.140Z,99.82
2022-08-26T03:07:50.897Z,100.00
2022-08-26T03:10:17.603Z,100.00
2022-08-26T03:12:47.522Z,100.00
2022-08-26T03:15:17.861Z,100.00
2022-08-26T03:17:46.427Z,100.00
2022-08-26T03:20:13.662Z,100.00
2022-08-26T03:22:42.147Z,100.00
2022-08-26T03:25:10.130Z,100.00
2022-08-26T03:27:36.769Z,100.00
2022-08-26T03:30:22.531Z,100.00
2022-08-26T03:32:49.362Z,100.00
2022-08-26T03:35:16.468Z,100.00
2022-08-26T03:37:43.537Z,100.00
2022-08-26T03:40:11.541Z,100.00
2022-08-26T03:42:39.306Z,100.00
2022-08-26T03:45:07.345Z,100.00
2022-08-26T03:47:33.870Z,100.00
2022-08-26T03:50:01.015Z,100.00
2022-08-26T03:52:27.923Z,100.00
2022-08-26T03:54:54.406Z,100.00
2022-08-26T03:57:20.887Z,100.00
2022-08-26T03:59:48.958Z,100.00
2022-08-26T04:02:15.603Z,100.00
2022-08-26T04:04:43.270Z,100.00
2022-08-26T04:07:09.796Z,100.00
2022-08-26T04:09:36.656Z,100.00
2022-08-26T04:12:04.458Z,100.00
2022-08-26T04:14:32.278Z,100.00
2022-08-26T04:16:59.058Z,100.00
2022-08-26T04:19:25.962Z,100.00
2022-08-26T04:21:53.313Z,100.00
2022-08-26T04:24:21.247Z,100.00
2022-08-26T04:26:48.249Z,100.00
2022-08-26T04:29:18.007Z,100.00
2022-08-26T04:31:45.327Z,100.00
2022-08-26T04:34:11.953Z,100.00
2022-08-26T04:36:41.242Z,100.00
2022-08-26T04:39:11.992Z,100.00
2022-08-26T04:41:39.234Z,100.00
2022-08-26T04:44:07.059Z,100.00
2022-08-26T04:46:33.729Z,100.00
2022-08-26T04:49:00.345Z,100.00
2022-08-26T04:51:29.755Z,100.00
2022-08-26T04:53:57.603Z,100.00
2022-08-26T04:56:29.467Z,100.00
2022-08-26T04:58:56.555Z,100.00
2022-08-26T05:01:23.876Z,100.00
2022-08-26T05:03:51.044Z,100.00
2022-08-26T05:06:19.070Z,100.00
2022-08-26T05:08:45.698Z,100.00
2022-08-26T05:11:12.735Z,99.84
2022-08-26T05:13:39.348Z,99.05
2022-08-26T05:16:07.439Z,98.53
2022-08-26T05:18:34.682Z,98.89
2022-08-26T05:21:02.933Z,97.67
2022-08-26T05:23:31.398Z,96.99
2022-08-26T05:26:00.315Z,96.87
2022-08-26T05:28:28.369Z,97.14
2022-08-26T05:30:55.645Z,95.72
2022-08-26T05:33:22.898Z,94.45
2022-08-26T05:35:49.447Z,94.62
2022-08-26T05:38:17.650Z,93.98
2022-08-26T05:40:45.849Z,92.15
2022-08-26T05:43:13.433Z,90.24
2022-08-26T05:45:46.084Z,88.68
2022-08-26T05:48:13.688Z,90.78
2022-08-26T05:50:41.446Z,90.08
2022-08-26T05:53:10.645Z,90.83
2022-08-26T05:55:44.421Z,87.17
2022-08-26T05:58:11.439Z,86.60
2022-08-26T06:00:38.546Z,84.81
2022-08-26T06:03:09.511Z,84.57
2022-08-26T06:05:40.020Z,84.11
2022-08-26T06:08:19.180Z,81.90
2022-08-26T06:10:47.662Z,82.18
2022-08-26T06:13:16.018Z,82.73
2022-08-26T06:15:45.634Z,79.11
2022-08-26T06:18:14.507Z,77.22
2022-08-26T06:20:44.122Z,79.38
2022-08-26T06:23:43.992Z,78.09
2022-08-26T06:26:11.293Z,74.89
2022-08-26T06:28:38.122Z,73.57
2022-08-26T06:31:06.033Z,73.01
2022-08-26T06:33:32.768Z,73.82
2022-08-26T06:36:01.040Z,72.37
2022-08-26T06:38:28.544Z,70.49
2022-08-26T06:40:55.078Z,71.67
2022-08-26T06:43:23.754Z,70.15
2022-08-26T06:45:52.141Z,67.42
2022-08-26T06:48:20.034Z,66.35
2022-08-26T06:50:46.561Z,65.94
2022-08-26T06:53:17.018Z,67.24
2022-08-26T06:55:46.063Z,66.98
2022-08-26T06:58:13.811Z,66.17
2022-08-26T07:00:40.457Z,65.37
2022-08-26T07:03:13.725Z,65.50
2022-08-26T07:05:40.697Z,63.98
2022-08-26T07:08:07.191Z,63.99
2022-08-26T07:10:35.769Z,64.18
2022-08-26T07:13:02.793Z,61.56
2022-08-26T07:15:31.371Z,60.18
2022-08-26T07:17:58.188Z,59.82
2022-08-26T07:20:24.792Z,58.79
2022-08-26T07:22:51.554Z,58.54
2022-08-26T07:25:19.306Z,59.65
2022-08-26T07:27:46.833Z,58.79
2022-08-26T07:30:20.845Z,58.27
2022-08-26T07:32:47.582Z,56.09
2022-08-26T07:35:14.658Z,54.95
2022-08-26T07:37:42.281Z,55.47
2022-08-26T07:40:09.435Z,53.20
2022-08-26T07:42:36.008Z,54.69
2022-08-26T07:45:02.501Z,53.20
2022-08-26T07:47:29.026Z,54.66
2022-08-26T07:49:56.631Z,54.20
2022-08-26T07:52:26.988Z,53.52
2022-08-26T07:54:54.160Z,50.59
2022-08-26T07:57:21.004Z,48.73
2022-08-26T07:59:47.506Z,50.26
2022-08-26T08:02:14.032Z,49.88
2022-08-26T08:04:40.650Z,52.13
2022-08-26T08:07:07.583Z,49.79
2022-08-26T08:09:38.094Z,49.45
2022-08-26T08:12:07.739Z,49.44
2022-08-26T08:14:36.488Z,52.76
2022-08-26T08:17:03.839Z,49.61
2022-08-26T08:19:39.126Z,48.26
2022-08-26T08:22:13.319Z,47.95
2022-08-26T08:24:45.085Z,49.30
2022-08-26T08:27:11.610Z,46.77
2022-08-26T08:29:38.616Z,46.61
2022-08-26T08:32:05.580Z,42.65
2022-08-26T08:34:38.346Z,47.80
2022-08-26T08:37:08.606Z,42.82
2022-08-26T08:39:37.112Z,44.90
2022-08-26T08:42:07.825Z,41.59
2022-08-26T08:44:37.337Z,42.16
2022-08-26T08:47:13.133Z,42.81
2022-08-26T08:49:39.753Z,41.77
2022-08-26T08:52:08.967Z,41.66
2022-08-26T08:54:38.180Z,39.95
2022-08-26T08:57:04.739Z,38.93
2022-08-26T08:59:32.602Z,37.71
2022-08-26T09:02:25.682Z,39.70
2022-08-26T09:05:02.330Z,38.69
2022-08-26T09:07:40.227Z,38.45
2022-08-26T09:10:25.527Z,35.10
2022-08-26T09:12:52.230Z,36.74
2022-08-26T09:15:28.562Z,39.94
2022-08-26T09:18:06.786Z,38.12
2022-08-26T09:20:48.676Z,38.82
2022-08-26T09:23:15.821Z,41.17
2022-08-26T09:25:55.678Z,38.34
2022-08-26T09:28:23.334Z,37.68
2022-08-26T09:31:11.531Z,39.00
2022-08-26T09:33:38.386Z,36.89
2022-08-26T09:36:15.638Z,38.38
2022-08-26T09:38:42.761Z,41.09
2022-08-26T09:41:27.138Z,37.78
2022-08-26T09:44:14.734Z,35.71
2022-08-26T09:46:54.266Z,36.17
2022-08-26T09:49:20.758Z,36.85
2022-08-26T09:51:50.095Z,35.05
2022-08-26T09:54:30.491Z,36.62
2022-08-26T09:57:31.532Z,34.79
2022-08-26T10:00:01.255Z,37.05
2022-08-26T10:02:40.638Z,36.04
2022-08-26T10:05:17.103Z,35.28
2022-08-26T10:07:48.708Z,36.78
2022-08-26T10:10:31.418Z,36.81
2022-08-26T10:13:09.178Z,36.80
2022-08-26T10:15:45.376Z,33.95
2022-08-26T10:18:27.899Z,33.59
2022-08-26T10:21:23.835Z,31.91
2022-08-26T10:23:51.893Z,32.41
2022-08-26T10:26:24.459Z,33.69
2022-08-26T10:28:51.067Z,33.52
2022-08-26T10:31:27.681Z,31.72
2022-08-26T10:33:58.662Z,32.42
2022-08-26T10:37:10.639Z,32.79
2022-08-26T10:39:39.263Z,35.32
2022-08-26T10:42:13.784Z,31.22
2022-08-26T10:44:43.844Z,37.13
2022-08-26T10:47:16.705Z,36.62
2022-08-26T10:49:45.903Z,33.01
2022-08-26T10:52:21.981Z,34.42
2022-08-26T10:55:03.099Z,33.69
2022-08-26T10:57:48.326Z,37.49
2022-08-26T11:01:03.425Z,34.29
2022-08-26T11:03:43.435Z,33.46
2022-08-26T11:06:15.724Z,34.22
2022-08-26T11:08:50.414Z,34.48
2022-08-26T11:11:35.586Z,35.76
2022-08-26T11:14:07.287Z,33.77
2022-08-26T11:16:33.781Z,32.02
2022-08-26T11:19:01.203Z,30.54
2022-08-26T11:21:43.496Z,30.49
2022-08-26T11:24:31.804Z,30.00
2022-08-26T11:26:58.283Z,28.66
2022-08-26T11:29:43.618Z,30.37
2022-08-26T11:32:23.734Z,30.30
2022-08-26T11:34:52.465Z,28.72
2022-08-26T11:39:55.488Z,29.64
2022-08-26T11:42:31.526Z,28.83
2022-08-26T11:44:59.857Z,28.80
2022-08-26T11:47:30.140Z,29.21
2022-08-26T11:50:09.491Z,30.33
2022-08-26T11:52:36.735Z,30.75
2022-08-26T11:55:03.330Z,31.98
2022-08-26T11:57:31.544Z,30.41
2022-08-26T11:59:58.542Z,29.34
2022-08-26T12:02:26.163Z,28.84
2022-08-26T12:04:53.531Z,29.03
2022-08-26T12:07:27.549Z,29.27
2022-08-26T12:10:00.510Z,32.01
2022-08-26T12:12:34.696Z,31.74
2022-08-26T12:15:04.632Z,29.39
2022-08-26T12:17:31.853Z,27.28
2022-08-26T12:19:58.444Z,25.62
2022-08-26T12:22:30.346Z,27.91
2022-08-26T12:25:01.279Z,28.36
2022-08-26T12:27:32.146Z,28.57
2022-08-26T12:30:08.496Z,28.81
2022-08-26T12:32:35.924Z,28.67
2022-08-26T12:35:10.492Z,31.08
2022-08-26T12:37:39.937Z,29.05
2022-08-26T12:40:25.785Z,29.33
2022-08-26T12:42:53.327Z,27.82
2022-08-26T12:45:46.200Z,28.64
2022-08-26T12:48:26.886Z,29.44
2022-08-26T12:50:53.714Z,29.26
2022-08-26T12:53:20.223Z,30.70
2022-08-26T12:55:48.286Z,32.33
2022-08-26T12:58:23.833Z,30.19
2022-08-26T13:00:58.281Z,31.66
2022-08-26T13:03:30.961Z,29.48
2022-08-26T13:06:09.492Z,29.21
2022-08-26T13:08:46.730Z,30.37
2022-08-26T13:11:18.452Z,30.01
2022-08-26T13:13:45.708Z,29.22
2022-08-26T13:16:14.029Z,29.52
2022-08-26T13:18:40.562Z,30.57
2022-08-26T13:21:17.673Z,30.46
2022-08-26T13:23:44.624Z,28.50
2022-08-26T13:26:11.494Z,26.98
2022-08-26T13:28:38.027Z,27.68
2022-08-26T13:31:04.972Z,29.58
2022-08-26T13:33:32.562Z,28.52
2022-08-26T13:35:59.430Z,28.22
2022-08-26T13:38:33.586Z,29.90
2022-08-26T13:41:02.590Z,29.01
2022-08-26T13:43:29.743Z,28.89
2022-08-26T13:45:56.662Z,30.01
2022-08-26T13:48:23.715Z,29.70
2022-08-26T13:50:50.679Z,30.98
2022-08-26T13:53:17.612Z,30.44
2022-08-26T13:55:44.359Z,29.47
2022-08-26T13:58:12.194Z,29.74
2022-08-26T14:00:39.662Z,30.52
2022-08-26T14:03:10.156Z,32.27
2022-08-26T14:05:39.245Z,30.15
2022-08-26T14:08:06.240Z,30.66
2022-08-26T14:10:33.523Z,31.30
2022-08-26T14:13:00.090Z,31.73
2022-08-26T14:15:26.934Z,32.88
2022-08-26T14:17:55.900Z,32.62
2022-08-26T14:20:24.965Z,31.70
2022-08-26T14:23:12.629Z,32.71
2022-08-26T14:25:39.121Z,33.49
2022-08-26T14:28:05.617Z,33.34
2022-08-26T14:30:32.314Z,33.18
2022-08-26T14:33:01.783Z,35.08
2022-08-26T14:35:30.824Z,33.36
2022-08-26T14:37:57.486Z,31.65
2022-08-26T14:40:27.239Z,32.10
2022-08-26T14:42:54.405Z,32.32
2022-08-26T14:45:22.614Z,32.48
2022-08-26T14:47:49.995Z,31.86
2022-08-26T14:50:18.630Z,33.71
2022-08-26T14:53:17.537Z,32.78
2022-08-26T14:55:44.929Z,31.95
2022-08-26T14:58:11.487Z,32.45
2022-08-26T15:00:38.231Z,32.62
2022-08-26T15:03:05.607Z,32.13
2022-08-26T15:05:33.025Z,32.84
2022-08-26T15:07:59.534Z,32.96
2022-08-26T15:10:26.156Z,33.13
2022-08-26T15:12:52.686Z,33.33
2022-08-26T15:15:21.483Z,34.31
2022-08-26T15:17:51.020Z,34.31
2022-08-26T15:20:20.901Z,34.88
2022-08-26T15:22:48.369Z,33.96
2022-08-26T15:25:17.446Z,34.55
2022-08-26T15:27:47.145Z,34.83
2022-08-26T15:30:18.202Z,35.03
2022-08-26T15:32:47.831Z,34.92
2022-08-26T15:35:20.316Z,34.83
2022-08-26T15:37:47.454Z,35.11
2022-08-26T15:40:14.094Z,35.03
2022-08-26T15:42:40.719Z,35.26
2022-08-26T15:45:07.500Z,35.43
2022-08-26T15:47:48.402Z,35.97
2022-08-26T15:50:20.960Z,35.83
2022-08-26T15:52:47.874Z,36.21
2022-08-26T15:55:14.411Z,35.77
2022-08-26T15:57:40.986Z,35.59
2022-08-26T16:00:09.665Z,36.29
2022-08-26T16:02:38.693Z,35.31
2022-08-26T16:05:05.324Z,35.84
2022-08-26T16:07:32.111Z,36.16
2022-08-26T16:09:58.911Z,36.11
2022-08-26T16:12:25.390Z,36.37
2022-08-26T16:14:53.861Z,36.37
2022-08-26T16:17:20.421Z,36.91
2022-08-26T16:22:43.079Z,37.98
2022-08-26T16:25:09.987Z,37.83
2022-08-26T16:27:36.643Z,39.46
2022-08-26T16:30:06.968Z,39.90
2022-08-26T16:32:33.554Z,39.61
2022-08-26T16:35:00.114Z,40.42
2022-08-26T16:37:26.683Z,41.00
2022-08-26T16:39:53.270Z,42.18
2022-08-26T16:42:19.838Z,42.53
2022-08-26T16:44:46.462Z,43.18
2022-08-26T16:47:14.357Z,44.66
2022-08-26T16:49:41.711Z,45.70
2022-08-26T16:52:09.065Z,48.10
2022-08-26T16:54:35.955Z,49.04
2022-08-26T16:57:02.524Z,50.48
2022-08-26T16:59:29.198Z,48.98
2022-08-26T17:01:55.845Z,49.05
2022-08-26T17:04:22.471Z,49.23
2022-08-26T17:06:49.026Z,49.64
2022-08-26T17:09:15.746Z,50.29
2022-08-26T17:11:42.547Z,51.07
2022-08-26T17:14:09.619Z,51.94
2022-08-26T17:16:36.249Z,51.70
2022-08-26T17:19:04.430Z,52.21
2022-08-26T17:21:31.913Z,52.74
2022-08-26T17:23:59.299Z,53.07
2022-08-26T17:26:26.711Z,54.04
2022-08-26T17:28:53.538Z,53.71
2022-08-26T17:31:20.443Z,54.28
2022-08-26T17:33:53.379Z,54.42
2022-08-26T17:36:20.264Z,53.54
2022-08-26T17:38:46.762Z,55.29
2022-08-26T17:41:16.450Z,55.85
2022-08-26T17:43:43.083Z,56.71
2022-08-26T17:46:10.106Z,58.27
2022-08-26T17:48:37.352Z,56.72
2022-08-26T17:51:08.192Z,56.84
2022-08-26T17:53:34.870Z,57.76
2022-08-26T17:56:01.547Z,58.71
2022-08-26T17:58:28.745Z,59.71
2022-08-26T18:00:55.598Z,58.60
2022-08-26T18:03:22.887Z,58.66
2022-08-26T18:05:52.811Z,59.16
2022-08-26T18:08:20.034Z,59.75
2022-08-26T18:10:47.071Z,60.04
2022-08-26T18:13:14.877Z,60.63
2022-08-26T18:15:45.531Z,60.31
2022-08-26T18:18:13.709Z,60.56
2022-08-26T18:20:41.142Z,60.42
2022-08-26T18:23:07.691Z,61.89
2022-08-26T18:25:34.269Z,61.44
2022-08-26T18:28:00.920Z,61.42
2022-08-26T18:30:27.530Z,61.94
2022-08-26T18:32:54.030Z,61.22
2022-08-26T18:35:21.497Z,61.80
2022-08-26T18:37:48.128Z,61.30
2022-08-26T18:40:16.104Z,61.17
2022-08-26T18:42:42.768Z,61.17
2022-08-26T18:45:09.648Z,61.16
2022-08-26T18:47:42.621Z,61.63
2022-08-26T18:50:10.821Z,62.28
2022-08-26T18:52:37.658Z,64.50
2022-08-26T18:55:04.355Z,65.71
2022-08-26T18:57:30.905Z,66.03
2022-08-26T18:59:57.666Z,64.28
2022-08-26T19:02:24.484Z,65.27
2022-08-26T19:04:51.813Z,65.87
2022-08-26T19:07:19.256Z,65.32
2022-08-26T19:09:45.757Z,65.62
2022-08-26T19:12:12.333Z,67.15
2022-08-26T19:14:38.866Z,68.08
2022-08-26T19:17:05.581Z,67.00
2022-08-26T19:19:32.182Z,68.01
2022-08-26T19:21:58.989Z,70.34
2022-08-26T19:24:27.445Z,69.52
2022-08-26T19:26:58.101Z,68.37
2022-08-26T19:29:26.872Z,68.82
2022-08-26T19:31:53.409Z,70.75
2022-08-26T19:34:20.707Z,70.09
2022-08-26T19:36:47.702Z,70.12
2022-08-26T19:39:14.227Z,70.64
2022-08-26T19:41:40.865Z,70.40
2022-08-26T19:44:12.875Z,70.26
2022-08-26T19:46:39.873Z,69.50
2022-08-26T19:49:06.402Z,68.86
2022-08-26T19:51:33.697Z,68.63
2022-08-26T19:54:01.107Z,69.86
2022-08-26T19:56:28.068Z,70.26
2022-08-26T19:58:55.172Z,70.00
2022-08-26T20:01:22.252Z,70.46
2022-08-26T20:03:48.890Z,70.15
2022-08-26T20:06:16.185Z,71.61
2022-08-26T20:08:43.231Z,71.57
2022-08-26T20:11:12.637Z,72.89
2022-08-26T20:13:39.832Z,71.64
2022-08-26T20:16:06.505Z,71.37
2022-08-26T20:18:51.778Z,73.43
2022-08-26T20:21:27.337Z,72.63
2022-08-26T20:23:58.256Z,74.78
2022-08-26T20:26:25.238Z,75.08
2022-08-26T20:28:51.786Z,75.76
2022-08-26T20:31:19.403Z,76.45
2022-08-26T20:33:46.764Z,76.33
2022-08-26T20:36:13.814Z,76.13
2022-08-26T20:38:40.298Z,76.50
2022-08-26T20:41:06.806Z,77.69
2022-08-26T20:43:33.377Z,75.97
2022-08-26T20:46:00.702Z,77.00
2022-08-26T20:48:27.251Z,76.84
2022-08-26T20:50:56.999Z,76.24
2022-08-26T20:53:24.301Z,76.33
2022-08-26T20:55:53.764Z,77.30
2022-08-26T20:58:23.101Z,76.79
2022-08-26T21:00:50.056Z,76.56
2022-08-26T21:03:16.630Z,79.35
2022-08-26T21:05:43.169Z,79.86
2022-08-26T21:08:09.954Z,78.73
2022-08-26T21:10:39.323Z,78.22
2022-08-26T21:13:05.902Z,78.30
2022-08-26T21:15:32.546Z,78.07
2022-08-26T21:17:59.795Z,78.33
2022-08-26T21:20:26.355Z,79.66
2022-08-26T21:22:52.863Z,78.92
2022-08-26T21:25:19.412Z,79.75
2022-08-26T21:27:45.982Z,78.97
2022-08-26T21:30:14.074Z,79.45
2022-08-26T21:32:40.686Z,81.00
2022-08-26T21:35:07.497Z,79.53
2022-08-26T21:37:34.270Z,80.97
2022-08-26T21:40:04.888Z,81.56
2022-08-26T21:42:33.334Z,81.11
2022-08-26T21:44:59.986Z,80.89
2022-08-26T21:47:26.543Z,82.03
2022-08-26T21:49:53.421Z,81.89
2022-08-26T21:52:21.223Z,80.96
2022-08-26T21:54:49.194Z,81.82
2022-08-26T21:57:16.327Z,82.61
2022-08-26T21:59:42.798Z,82.63
2022-08-26T22:02:09.303Z,83.53
2022-08-26T22:04:36.106Z,83.72
2022-08-26T22:07:03.452Z,84.53
2022-08-26T22:09:33.466Z,85.55
2022-08-26T22:12:00.566Z,85.24
2022-08-26T22:14:30.656Z,84.46
2022-08-26T22:16:58.332Z,85.30
2022-08-26T22:19:24.961Z,85.23
2022-08-26T22:21:52.893Z,84.63
2022-08-26T22:24:20.675Z,84.69
2022-08-26T22:26:47.938Z,84.39
2022-08-26T22:29:14.953Z,83.81
2022-08-26T22:31:43.373Z,84.05
2022-08-26T22:34:11.878Z,83.81
2022-08-26T22:36:43.562Z,85.56
2022-08-26T22:39:11.913Z,86.21
2022-08-26T22:41:38.433Z,85.36
2022-08-26T22:44:05.177Z,84.63
2022-08-26T22:46:34.715Z,84.20
2022-08-26T22:49:01.424Z,84.54
2022-08-26T22:51:28.141Z,85.06
2022-08-26T22:53:54.780Z,85.14
2022-08-26T22:56:22.067Z,85.50
2022-08-26T22:58:48.851Z,85.56
2022-08-26T23:01:16.857Z,84.59
2022-08-26T23:03:44.095Z,84.20
2022-08-26T23:06:10.769Z,86.24
2022-08-26T23:08:38.382Z,86.33
2022-08-26T23:11:08.278Z,85.65
2022-08-26T23:13:34.790Z,86.50
2022-08-26T23:16:02.382Z,86.57
2022-08-26T23:18:29.008Z,85.62
2022-08-26T23:20:56.816Z,85.86
2022-08-26T23:23:23.958Z,85.25
2022-08-26T23:25:50.434Z,84.28
2022-08-26T23:28:17.510Z,86.15
2022-08-26T23:30:44.063Z,87.05
2022-08-26T23:33:10.568Z,88.23
2022-08-26T23:35:37.065Z,89.23
2022-08-26T23:38:05.162Z,88.67
2022-08-26T23:40:33.169Z,88.62
2022-08-26T23:43:01.293Z,88.83
2022-08-26T23:45:27.831Z,88.18
2022-08-26T23:47:54.799Z,84.86
2022-08-26T23:50:22.293Z,85.46
2022-08-26T23:53:08.614Z,86.24
2022-08-26T23:55:38.881Z,87.84
2022-08-26T23:58:05.842Z,87.66
